sensor_id;sensor_type;location;lat;lon;timestamp;P1;durP1;ratioP1;P2;durP2;ratioP2
8889;SDS011;4481;43.406;24.454;2023-04-25T00:00:01;3.87;;;3.57;;
8889;SDS011;4481;43.406;24.454;2023-04-25T00:02:31;4.50;;;3.73;;
8889;SDS011;4481;43.406;24.454;2023-04-25T00:04:59;3.30;;;3.00;;
8889;SDS011;4481;43.406;24.454;2023-04-25T00:07:27;5.27;;;3.27;;
8889;SDS011;4481;43.406;24.454;2023-04-25T00:09:53;3.40;;;2.90;;
8889;SDS011;4481;43.406;24.454;2023-04-25T00:12:19;3.73;;;3.17;;
8889;SDS011;4481;43.406;24.454;2023-04-25T00:14:46;3.07;;;2.77;;
8889;SDS011;4481;43.406;24.454;2023-04-25T00:17:14;3.10;;;2.53;;
8889;SDS011;4481;43.406;24.454;2023-04-25T00:19:41;3.17;;;2.83;;
8889;SDS011;4481;43.406;24.454;2023-04-25T00:22:07;2.90;;;2.60;;
8889;SDS011;4481;43.406;24.454;2023-04-25T00:24:34;3.00;;;2.63;;
8889;SDS011;4481;43.406;24.454;2023-04-25T00:27:00;3.23;;;3.00;;
8889;SDS011;4481;43.406;24.454;2023-04-25T00:29:26;5.00;;;3.00;;
8889;SDS011;4481;43.406;24.454;2023-04-25T00:31:52;2.90;;;2.60;;
8889;SDS011;4481;43.406;24.454;2023-04-25T00:34:18;3.17;;;2.63;;
8889;SDS011;4481;43.406;24.454;2023-04-25T00:36:45;4.67;;;2.70;;
8889;SDS011;4481;43.406;24.454;2023-04-25T00:39:11;5.03;;;3.00;;
8889;SDS011;4481;43.406;24.454;2023-04-25T00:41:39;3.17;;;2.83;;
8889;SDS011;4481;43.406;24.454;2023-04-25T00:44:06;6.40;;;2.70;;
8889;SDS011;4481;43.406;24.454;2023-04-25T00:46:36;3.30;;;2.70;;
8889;SDS011;4481;43.406;24.454;2023-04-25T00:49:02;5.17;;;2.77;;
8889;SDS011;4481;43.406;24.454;2023-04-25T00:51:29;4.80;;;2.77;;
8889;SDS011;4481;43.406;24.454;2023-04-25T00:53:56;3.20;;;2.90;;
8889;SDS011;4481;43.406;24.454;2023-04-25T00:56:22;3.20;;;2.40;;
8889;SDS011;4481;43.406;24.454;2023-04-25T00:58:49;2.87;;;2.60;;
8889;SDS011;4481;43.406;24.454;2023-04-25T01:01:19;5.07;;;2.90;;
8889;SDS011;4481;43.406;24.454;2023-04-25T01:03:45;3.00;;;2.70;;
8889;SDS011;4481;43.406;24.454;2023-04-25T01:06:12;3.60;;;2.50;;
8889;SDS011;4481;43.406;24.454;2023-04-25T01:08:38;3.00;;;2.60;;
8889;SDS011;4481;43.406;24.454;2023-04-25T01:11:05;5.80;;;2.63;;
8889;SDS011;4481;43.406;24.454;2023-04-25T01:13:31;2.90;;;2.60;;
8889;SDS011;4481;43.406;24.454;2023-04-25T01:15:59;2.70;;;2.30;;
8889;SDS011;4481;43.406;24.454;2023-04-25T01:18:25;2.90;;;2.43;;
8889;SDS011;4481;43.406;24.454;2023-04-25T01:20:52;2.90;;;2.60;;
8889;SDS011;4481;43.406;24.454;2023-04-25T01:23:19;2.67;;;2.47;;
8889;SDS011;4481;43.406;24.454;2023-04-25T01:25:46;3.07;;;2.77;;
8889;SDS011;4481;43.406;24.454;2023-04-25T01:28:13;2.67;;;2.43;;
8889;SDS011;4481;43.406;24.454;2023-04-25T01:30:39;6.40;;;2.40;;
8889;SDS011;4481;43.406;24.454;2023-04-25T01:33:06;2.73;;;2.53;;
8889;SDS011;4481;43.406;24.454;2023-04-25T01:35:34;2.30;;;2.07;;
8889;SDS011;4481;43.406;24.454;2023-04-25T01:38:00;2.60;;;2.40;;
8889;SDS011;4481;43.406;24.454;2023-04-25T01:40:27;3.37;;;2.33;;
8889;SDS011;4481;43.406;24.454;2023-04-25T01:42:53;1.97;;;1.87;;
8889;SDS011;4481;43.406;24.454;2023-04-25T01:45:20;4.23;;;2.63;;
8889;SDS011;4481;43.406;24.454;2023-04-25T01:47:46;2.27;;;2.07;;
8889;SDS011;4481;43.406;24.454;2023-04-25T01:50:15;2.53;;;2.27;;
8889;SDS011;4481;43.406;24.454;2023-04-25T01:52:42;5.57;;;2.20;;
8889;SDS011;4481;43.406;24.454;2023-04-25T01:55:09;2.70;;;1.97;;
8889;SDS011;4481;43.406;24.454;2023-04-25T01:57:36;2.20;;;2.00;;
8889;SDS011;4481;43.406;24.454;2023-04-25T02:00:03;2.40;;;2.20;;
8889;SDS011;4481;43.406;24.454;2023-04-25T02:02:31;2.37;;;2.10;;
8889;SDS011;4481;43.406;24.454;2023-04-25T02:04:57;3.67;;;2.40;;
8889;SDS011;4481;43.406;24.454;2023-04-25T02:07:23;2.43;;;2.10;;
8889;SDS011;4481;43.406;24.454;2023-04-25T02:09:51;2.43;;;2.20;;
8889;SDS011;4481;43.406;24.454;2023-04-25T02:12:17;2.07;;;1.97;;
8889;SDS011;4481;43.406;24.454;2023-04-25T02:14:44;3.03;;;2.30;;
8889;SDS011;4481;43.406;24.454;2023-04-25T02:17:10;2.50;;;2.20;;
8889;SDS011;4481;43.406;24.454;2023-04-25T02:19:38;5.43;;;2.20;;
8889;SDS011;4481;43.406;24.454;2023-04-25T02:22:04;2.83;;;2.20;;
8889;SDS011;4481;43.406;24.454;2023-04-25T02:24:30;2.70;;;2.50;;
8889;SDS011;4481;43.406;24.454;2023-04-25T02:26:58;2.90;;;2.67;;
8889;SDS011;4481;43.406;24.454;2023-04-25T02:29:24;4.00;;;3.57;;
8889;SDS011;4481;43.406;24.454;2023-04-25T02:31:51;3.23;;;2.93;;
8889;SDS011;4481;43.406;24.454;2023-04-25T02:34:17;3.90;;;2.63;;
8889;SDS011;4481;43.406;24.454;2023-04-25T02:36:43;2.93;;;2.60;;
8889;SDS011;4481;43.406;24.454;2023-04-25T02:39:09;2.67;;;2.47;;
8889;SDS011;4481;43.406;24.454;2023-04-25T02:41:36;2.60;;;2.40;;
8889;SDS011;4481;43.406;24.454;2023-04-25T02:44:02;2.97;;;2.30;;
8889;SDS011;4481;43.406;24.454;2023-04-25T02:46:29;2.50;;;2.30;;
8889;SDS011;4481;43.406;24.454;2023-04-25T02:48:55;2.60;;;2.10;;
8889;SDS011;4481;43.406;24.454;2023-04-25T02:51:21;2.57;;;2.30;;
8889;SDS011;4481;43.406;24.454;2023-04-25T02:53:48;2.93;;;2.10;;
8889;SDS011;4481;43.406;24.454;2023-04-25T02:56:14;3.23;;;2.70;;
8889;SDS011;4481;43.406;24.454;2023-04-25T02:58:40;3.73;;;2.27;;
8889;SDS011;4481;43.406;24.454;2023-04-25T03:01:06;2.30;;;2.10;;
8889;SDS011;4481;43.406;24.454;2023-04-25T03:03:32;4.93;;;2.17;;
8889;SDS011;4481;43.406;24.454;2023-04-25T03:05:59;5.13;;;2.10;;
8889;SDS011;4481;43.406;24.454;2023-04-25T03:08:25;3.80;;;2.43;;
8889;SDS011;4481;43.406;24.454;2023-04-25T03:10:54;2.47;;;2.27;;
8889;SDS011;4481;43.406;24.454;2023-04-25T03:13:21;2.70;;;2.37;;
8889;SDS011;4481;43.406;24.454;2023-04-25T03:15:47;2.40;;;2.20;;
8889;SDS011;4481;43.406;24.454;2023-04-25T03:18:13;3.77;;;2.47;;
8889;SDS011;4481;43.406;24.454;2023-04-25T03:20:39;3.70;;;2.43;;
8889;SDS011;4481;43.406;24.454;2023-04-25T03:23:07;5.60;;;2.90;;
8889;SDS011;4481;43.406;24.454;2023-04-25T03:25:33;2.90;;;2.63;;
8889;SDS011;4481;43.406;24.454;2023-04-25T03:28:00;2.90;;;2.57;;
8889;SDS011;4481;43.406;24.454;2023-04-25T03:30:26;4.43;;;2.40;;
8889;SDS011;4481;43.406;24.454;2023-04-25T03:32:52;3.77;;;2.97;;
8889;SDS011;4481;43.406;24.454;2023-04-25T03:35:18;4.73;;;2.60;;
8889;SDS011;4481;43.406;24.454;2023-04-25T03:37:45;2.53;;;2.33;;
8889;SDS011;4481;43.406;24.454;2023-04-25T03:40:12;2.60;;;2.40;;
8889;SDS011;4481;43.406;24.454;2023-04-25T03:42:38;2.57;;;2.37;;
8889;SDS011;4481;43.406;24.454;2023-04-25T03:45:05;2.70;;;2.50;;
8889;SDS011;4481;43.406;24.454;2023-04-25T03:47:32;4.97;;;2.87;;
8889;SDS011;4481;43.406;24.454;2023-04-25T03:49:58;2.70;;;2.37;;
8889;SDS011;4481;43.406;24.454;2023-04-25T03:52:26;2.87;;;2.53;;
8889;SDS011;4481;43.406;24.454;2023-04-25T03:54:52;3.70;;;2.77;;
8889;SDS011;4481;43.406;24.454;2023-04-25T03:57:19;2.87;;;2.53;;
8889;SDS011;4481;43.406;24.454;2023-04-25T03:59:45;3.00;;;2.60;;
8889;SDS011;4481;43.406;24.454;2023-04-25T04:02:11;4.83;;;2.50;;
8889;SDS011;4481;43.406;24.454;2023-04-25T04:04:38;3.10;;;2.40;;
8889;SDS011;4481;43.406;24.454;2023-04-25T04:07:04;3.87;;;2.53;;
8889;SDS011;4481;43.406;24.454;2023-04-25T04:09:30;6.20;;;2.30;;
8889;SDS011;4481;43.406;24.454;2023-04-25T04:11:56;2.73;;;2.17;;
8889;SDS011;4481;43.406;24.454;2023-04-25T04:14:23;3.10;;;2.30;;
8889;SDS011;4481;43.406;24.454;2023-04-25T04:16:50;3.97;;;2.53;;
8889;SDS011;4481;43.406;24.454;2023-04-25T04:19:17;3.00;;;2.73;;
8889;SDS011;4481;43.406;24.454;2023-04-25T04:21:43;3.53;;;2.67;;
8889;SDS011;4481;43.406;24.454;2023-04-25T04:24:09;3.00;;;2.60;;
8889;SDS011;4481;43.406;24.454;2023-04-25T04:26:35;2.87;;;2.60;;
8889;SDS011;4481;43.406;24.454;2023-04-25T04:29:02;4.90;;;3.10;;
8889;SDS011;4481;43.406;24.454;2023-04-25T04:31:29;3.50;;;3.17;;
8889;SDS011;4481;43.406;24.454;2023-04-25T04:33:55;4.83;;;3.93;;
8889;SDS011;4481;43.406;24.454;2023-04-25T04:36:21;5.57;;;3.73;;
8889;SDS011;4481;43.406;24.454;2023-04-25T04:38:48;7.53;;;3.70;;
8889;SDS011;4481;43.406;24.454;2023-04-25T04:41:14;4.37;;;2.83;;
8889;SDS011;4481;43.406;24.454;2023-04-25T04:43:41;4.83;;;3.30;;
8889;SDS011;4481;43.406;24.454;2023-04-25T04:46:07;3.17;;;2.87;;
8889;SDS011;4481;43.406;24.454;2023-04-25T04:48:35;7.50;;;3.90;;
8889;SDS011;4481;43.406;24.454;2023-04-25T04:51:02;4.30;;;3.27;;
8889;SDS011;4481;43.406;24.454;2023-04-25T04:53:28;5.07;;;3.80;;
8889;SDS011;4481;43.406;24.454;2023-04-25T04:55:54;4.07;;;3.43;;
8889;SDS011;4481;43.406;24.454;2023-04-25T04:58:21;4.37;;;3.90;;
8889;SDS011;4481;43.406;24.454;2023-04-25T05:00:49;6.77;;;4.30;;
8889;SDS011;4481;43.406;24.454;2023-04-25T05:03:15;6.00;;;4.43;;
8889;SDS011;4481;43.406;24.454;2023-04-25T05:05:42;5.83;;;4.33;;
8889;SDS011;4481;43.406;24.454;2023-04-25T05:08:08;5.40;;;4.73;;
8889;SDS011;4481;43.406;24.454;2023-04-25T05:10:34;7.40;;;4.17;;
8889;SDS011;4481;43.406;24.454;2023-04-25T05:13:00;5.87;;;4.30;;
8889;SDS011;4481;43.406;24.454;2023-04-25T05:15:27;4.30;;;3.80;;
8889;SDS011;4481;43.406;24.454;2023-04-25T05:17:53;5.00;;;4.10;;
8889;SDS011;4481;43.406;24.454;2023-04-25T05:20:19;3.60;;;3.30;;
8889;SDS011;4481;43.406;24.454;2023-04-25T05:22:46;3.50;;;3.20;;
8889;SDS011;4481;43.406;24.454;2023-04-25T05:25:12;4.20;;;3.27;;
8889;SDS011;4481;43.406;24.454;2023-04-25T05:27:38;3.73;;;2.97;;
8889;SDS011;4481;43.406;24.454;2023-04-25T05:30:05;4.30;;;2.90;;
8889;SDS011;4481;43.406;24.454;2023-04-25T05:32:33;2.63;;;2.20;;
8889;SDS011;4481;43.406;24.454;2023-04-25T05:34:59;2.87;;;2.57;;
8889;SDS011;4481;43.406;24.454;2023-04-25T05:37:25;4.93;;;2.70;;
8889;SDS011;4481;43.406;24.454;2023-04-25T05:39:53;2.57;;;2.37;;
8889;SDS011;4481;43.406;24.454;2023-04-25T05:42:19;4.23;;;2.87;;
8889;SDS011;4481;43.406;24.454;2023-04-25T05:44:45;2.90;;;2.30;;
8889;SDS011;4481;43.406;24.454;2023-04-25T05:47:11;2.63;;;2.30;;
8889;SDS011;4481;43.406;24.454;2023-04-25T05:49:37;2.20;;;1.90;;
8889;SDS011;4481;43.406;24.454;2023-04-25T05:52:03;3.13;;;2.53;;
8889;SDS011;4481;43.406;24.454;2023-04-25T05:54:30;3.83;;;3.10;;
8889;SDS011;4481;43.406;24.454;2023-04-25T05:56:57;4.33;;;2.20;;
8889;SDS011;4481;43.406;24.454;2023-04-25T05:59:25;1.97;;;1.67;;
8889;SDS011;4481;43.406;24.454;2023-04-25T06:01:52;2.13;;;1.53;;
8889;SDS011;4481;43.406;24.454;2023-04-25T06:04:19;2.00;;;1.90;;
8889;SDS011;4481;43.406;24.454;2023-04-25T06:06:46;2.20;;;2.00;;
8889;SDS011;4481;43.406;24.454;2023-04-25T06:09:12;2.47;;;1.93;;
8889;SDS011;4481;43.406;24.454;2023-04-25T06:11:40;4.60;;;1.80;;
8889;SDS011;4481;43.406;24.454;2023-04-25T06:14:07;2.67;;;1.90;;
8889;SDS011;4481;43.406;24.454;2023-04-25T06:16:34;1.63;;;1.53;;
8889;SDS011;4481;43.406;24.454;2023-04-25T06:19:00;4.40;;;2.10;;
8889;SDS011;4481;43.406;24.454;2023-04-25T06:21:26;2.00;;;1.87;;
8889;SDS011;4481;43.406;24.454;2023-04-25T06:23:56;2.23;;;2.03;;
8889;SDS011;4481;43.406;24.454;2023-04-25T06:26:22;2.77;;;2.57;;
8889;SDS011;4481;43.406;24.454;2023-04-25T06:28:48;2.70;;;2.47;;
8889;SDS011;4481;43.406;24.454;2023-04-25T06:31:15;2.67;;;2.20;;
8889;SDS011;4481;43.406;24.454;2023-04-25T06:33:41;2.97;;;2.47;;
8889;SDS011;4481;43.406;24.454;2023-04-25T06:36:10;3.43;;;2.33;;
8889;SDS011;4481;43.406;24.454;2023-04-25T06:38:37;2.50;;;2.30;;
8889;SDS011;4481;43.406;24.454;2023-04-25T06:41:03;4.20;;;2.23;;
8889;SDS011;4481;43.406;24.454;2023-04-25T06:43:30;5.27;;;2.33;;
8889;SDS011;4481;43.406;24.454;2023-04-25T06:45:58;2.60;;;2.40;;
8889;SDS011;4481;43.406;24.454;2023-04-25T06:48:25;2.53;;;2.33;;
8889;SDS011;4481;43.406;24.454;2023-04-25T06:50:52;2.30;;;2.10;;
8889;SDS011;4481;43.406;24.454;2023-04-25T06:53:18;3.53;;;2.20;;
8889;SDS011;4481;43.406;24.454;2023-04-25T06:55:44;2.50;;;2.07;;
8889;SDS011;4481;43.406;24.454;2023-04-25T06:58:10;3.13;;;2.10;;
8889;SDS011;4481;43.406;24.454;2023-04-25T07:00:37;3.20;;;2.03;;
8889;SDS011;4481;43.406;24.454;2023-04-25T07:03:03;2.30;;;2.10;;
8889;SDS011;4481;43.406;24.454;2023-04-25T07:05:30;3.50;;;2.03;;
8889;SDS011;4481;43.406;24.454;2023-04-25T07:07:56;3.10;;;2.10;;
8889;SDS011;4481;43.406;24.454;2023-04-25T07:10:22;2.27;;;2.07;;
8889;SDS011;4481;43.406;24.454;2023-04-25T07:12:49;2.40;;;2.17;;
8889;SDS011;4481;43.406;24.454;2023-04-25T07:15:15;2.83;;;2.10;;
8889;SDS011;4481;43.406;24.454;2023-04-25T07:17:41;5.77;;;2.40;;
8889;SDS011;4481;43.406;24.454;2023-04-25T07:20:08;3.20;;;2.17;;
8889;SDS011;4481;43.406;24.454;2023-04-25T07:22:35;2.60;;;2.20;;
8889;SDS011;4481;43.406;24.454;2023-04-25T07:25:02;4.87;;;2.57;;
8889;SDS011;4481;43.406;24.454;2023-04-25T07:27:29;2.40;;;2.17;;
8889;SDS011;4481;43.406;24.454;2023-04-25T07:29:56;3.17;;;2.57;;
8889;SDS011;4481;43.406;24.454;2023-04-25T07:32:22;3.10;;;2.77;;
8889;SDS011;4481;43.406;24.454;2023-04-25T07:34:49;2.70;;;2.50;;
8889;SDS011;4481;43.406;24.454;2023-04-25T07:37:15;2.30;;;2.10;;
8889;SDS011;4481;43.406;24.454;2023-04-25T07:39:44;2.87;;;2.53;;
8889;SDS011;4481;43.406;24.454;2023-04-25T07:42:11;2.47;;;2.27;;
8889;SDS011;4481;43.406;24.454;2023-04-25T07:44:37;2.83;;;2.40;;
8889;SDS011;4481;43.406;24.454;2023-04-25T07:47:05;4.33;;;2.60;;
8889;SDS011;4481;43.406;24.454;2023-04-25T07:49:32;2.53;;;2.33;;
8889;SDS011;4481;43.406;24.454;2023-04-25T07:51:59;3.10;;;2.80;;
8889;SDS011;4481;43.406;24.454;2023-04-25T07:54:26;4.30;;;2.70;;
8889;SDS011;4481;43.406;24.454;2023-04-25T07:56:52;2.43;;;2.23;;
8889;SDS011;4481;43.406;24.454;2023-04-25T07:59:19;3.03;;;2.60;;
8889;SDS011;4481;43.406;24.454;2023-04-25T08:01:45;4.00;;;2.67;;
8889;SDS011;4481;43.406;24.454;2023-04-25T08:04:11;4.07;;;2.73;;
8889;SDS011;4481;43.406;24.454;2023-04-25T08:06:37;3.90;;;2.80;;
8889;SDS011;4481;43.406;24.454;2023-04-25T08:09:04;3.33;;;3.03;;
8889;SDS011;4481;43.406;24.454;2023-04-25T08:11:30;5.37;;;3.13;;
8889;SDS011;4481;43.406;24.454;2023-04-25T08:13:57;6.67;;;2.70;;
8889;SDS011;4481;43.406;24.454;2023-04-25T08:16:23;3.30;;;3.00;;
8889;SDS011;4481;43.406;24.454;2023-04-25T08:18:49;5.00;;;3.23;;
8889;SDS011;4481;43.406;24.454;2023-04-25T08:21:16;4.80;;;2.67;;
8889;SDS011;4481;43.406;24.454;2023-04-25T08:23:43;4.23;;;2.90;;
8889;SDS011;4481;43.406;24.454;2023-04-25T08:26:10;4.57;;;3.13;;
8889;SDS011;4481;43.406;24.454;2023-04-25T08:28:36;3.17;;;2.87;;
8889;SDS011;4481;43.406;24.454;2023-04-25T08:31:03;5.67;;;3.30;;
8889;SDS011;4481;43.406;24.454;2023-04-25T08:33:29;3.33;;;2.70;;
8889;SDS011;4481;43.406;24.454;2023-04-25T08:35:56;4.40;;;2.80;;
8889;SDS011;4481;43.406;24.454;2023-04-25T08:38:23;2.50;;;2.30;;
8889;SDS011;4481;43.406;24.454;2023-04-25T08:40:52;2.47;;;2.27;;
8889;SDS011;4481;43.406;24.454;2023-04-25T08:43:20;2.37;;;2.17;;
8889;SDS011;4481;43.406;24.454;2023-04-25T08:45:48;4.57;;;2.10;;
8889;SDS011;4481;43.406;24.454;2023-04-25T08:48:17;2.53;;;2.20;;
8889;SDS011;4481;43.406;24.454;2023-04-25T08:50:45;2.20;;;2.00;;
8889;SDS011;4481;43.406;24.454;2023-04-25T08:53:14;2.63;;;2.33;;
8889;SDS011;4481;43.406;24.454;2023-04-25T08:55:44;5.57;;;2.10;;
8889;SDS011;4481;43.406;24.454;2023-04-25T08:58:11;2.13;;;1.93;;
8889;SDS011;4481;43.406;24.454;2023-04-25T09:00:38;2.77;;;1.73;;
8889;SDS011;4481;43.406;24.454;2023-04-25T09:03:05;2.23;;;2.00;;
8889;SDS011;4481;43.406;24.454;2023-04-25T09:05:32;1.80;;;1.60;;
8889;SDS011;4481;43.406;24.454;2023-04-25T09:07:58;1.90;;;1.80;;
8889;SDS011;4481;43.406;24.454;2023-04-25T09:10:25;2.57;;;2.00;;
8889;SDS011;4481;43.406;24.454;2023-04-25T09:13:02;2.30;;;2.10;;
8889;SDS011;4481;43.406;24.454;2023-04-25T09:15:30;2.67;;;2.20;;
8889;SDS011;4481;43.406;24.454;2023-04-25T09:17:57;2.40;;;2.17;;
8889;SDS011;4481;43.406;24.454;2023-04-25T09:20:23;2.30;;;2.10;;
8889;SDS011;4481;43.406;24.454;2023-04-25T09:22:59;2.77;;;2.30;;
8889;SDS011;4481;43.406;24.454;2023-04-25T09:25:27;3.30;;;2.43;;
8889;SDS011;4481;43.406;24.454;2023-04-25T09:28:00;2.00;;;1.90;;
8889;SDS011;4481;43.406;24.454;2023-04-25T09:30:30;2.93;;;2.70;;
8889;SDS011;4481;43.406;24.454;2023-04-25T09:32:57;3.23;;;2.73;;
8889;SDS011;4481;43.406;24.454;2023-04-25T09:35:29;2.33;;;2.13;;
8889;SDS011;4481;43.406;24.454;2023-04-25T09:38:01;2.10;;;1.90;;
8889;SDS011;4481;43.406;24.454;2023-04-25T09:40:28;2.37;;;2.17;;
8889;SDS011;4481;43.406;24.454;2023-04-25T09:42:56;2.03;;;1.90;;
8889;SDS011;4481;43.406;24.454;2023-04-25T09:45:24;2.30;;;2.10;;
8889;SDS011;4481;43.406;24.454;2023-04-25T09:47:50;2.33;;;1.90;;
8889;SDS011;4481;43.406;24.454;2023-04-25T09:50:22;2.37;;;2.17;;
8889;SDS011;4481;43.406;24.454;2023-04-25T09:53:02;3.37;;;2.20;;
8889;SDS011;4481;43.406;24.454;2023-04-25T09:55:29;2.87;;;2.23;;
8889;SDS011;4481;43.406;24.454;2023-04-25T09:57:57;2.53;;;2.33;;
8889;SDS011;4481;43.406;24.454;2023-04-25T10:00:29;3.63;;;2.60;;
8889;SDS011;4481;43.406;24.454;2023-04-25T10:02:56;2.67;;;2.40;;
8889;SDS011;4481;43.406;24.454;2023-04-25T10:05:26;2.50;;;2.30;;
8889;SDS011;4481;43.406;24.454;2023-04-25T10:07:58;2.20;;;2.00;;
8889;SDS011;4481;43.406;24.454;2023-04-25T10:10:28;3.60;;;2.20;;
8889;SDS011;4481;43.406;24.454;2023-04-25T10:13:01;2.03;;;1.90;;
8889;SDS011;4481;43.406;24.454;2023-04-25T10:15:29;1.60;;;1.50;;
8889;SDS011;4481;43.406;24.454;2023-04-25T10:17:56;4.33;;;1.80;;
8889;SDS011;4481;43.406;24.454;2023-04-25T10:20:23;1.80;;;1.70;;
8889;SDS011;4481;43.406;24.454;2023-04-25T10:22:50;1.90;;;1.70;;
8889;SDS011;4481;43.406;24.454;2023-04-25T10:25:21;3.40;;;2.00;;
8889;SDS011;4481;43.406;24.454;2023-04-25T10:27:50;1.43;;;1.33;;
8889;SDS011;4481;43.406;24.454;2023-04-25T10:30:18;4.77;;;1.93;;
8889;SDS011;4481;43.406;24.454;2023-04-25T10:32:46;2.43;;;1.83;;
8889;SDS011;4481;43.406;24.454;2023-04-25T10:35:15;1.87;;;1.67;;
8889;SDS011;4481;43.406;24.454;2023-04-25T10:40:30;3.00;;;1.70;;
8889;SDS011;4481;43.406;24.454;2023-04-25T10:45:59;1.60;;;1.40;;
8889;SDS011;4481;43.406;24.454;2023-04-25T10:48:26;2.23;;;1.50;;
8889;SDS011;4481;43.406;24.454;2023-04-25T10:51:06;1.40;;;1.30;;
8889;SDS011;4481;43.406;24.454;2023-04-25T10:53:33;2.00;;;1.43;;
8889;SDS011;4481;43.406;24.454;2023-04-25T10:56:00;1.70;;;1.60;;
8889;SDS011;4481;43.406;24.454;2023-04-25T10:58:34;1.50;;;1.30;;
8889;SDS011;4481;43.406;24.454;2023-04-25T11:01:01;2.67;;;1.63;;
8889;SDS011;4481;43.406;24.454;2023-04-25T11:03:27;1.93;;;1.30;;
8889;SDS011;4481;43.406;24.454;2023-04-25T11:05:55;1.70;;;1.60;;
8889;SDS011;4481;43.406;24.454;2023-04-25T11:08:32;2.23;;;1.53;;
8889;SDS011;4481;43.406;24.454;2023-04-25T11:11:10;1.77;;;1.67;;
8889;SDS011;4481;43.406;24.454;2023-04-25T11:13:37;2.20;;;1.83;;
8889;SDS011;4481;43.406;24.454;2023-04-25T11:16:04;1.77;;;1.37;;
8889;SDS011;4481;43.406;24.454;2023-04-25T11:18:32;1.70;;;1.60;;
8889;SDS011;4481;43.406;24.454;2023-04-25T11:20:59;1.83;;;1.30;;
8889;SDS011;4481;43.406;24.454;2023-04-25T11:23:25;2.97;;;1.70;;
8889;SDS011;4481;43.406;24.454;2023-04-25T11:25:52;1.80;;;1.60;;
8889;SDS011;4481;43.406;24.454;2023-04-25T11:28:20;3.40;;;1.97;;
8889;SDS011;4481;43.406;24.454;2023-04-25T11:30:48;3.00;;;1.70;;
8889;SDS011;4481;43.406;24.454;2023-04-25T11:33:15;1.70;;;1.60;;
8889;SDS011;4481;43.406;24.454;2023-04-25T11:35:42;1.43;;;1.33;;
8889;SDS011;4481;43.406;24.454;2023-04-25T11:38:08;3.37;;;1.60;;
8889;SDS011;4481;43.406;24.454;2023-04-25T11:40:35;2.47;;;1.50;;
8889;SDS011;4481;43.406;24.454;2023-04-25T11:43:01;2.00;;;1.80;;
8889;SDS011;4481;43.406;24.454;2023-04-25T11:45:28;1.60;;;1.50;;
8889;SDS011;4481;43.406;24.454;2023-04-25T11:47:55;2.30;;;1.43;;
8889;SDS011;4481;43.406;24.454;2023-04-25T11:50:21;6.10;;;1.70;;
8889;SDS011;4481;43.406;24.454;2023-04-25T11:52:48;1.73;;;1.40;;
8889;SDS011;4481;43.406;24.454;2023-04-25T11:55:15;1.50;;;1.40;;
8889;SDS011;4481;43.406;24.454;2023-04-25T11:57:42;2.37;;;1.60;;
8889;SDS011;4481;43.406;24.454;2023-04-25T12:00:11;1.70;;;1.60;;
8889;SDS011;4481;43.406;24.454;2023-04-25T12:02:41;5.60;;;2.40;;
8889;SDS011;4481;43.406;24.454;2023-04-25T12:05:08;2.87;;;1.90;;
8889;SDS011;4481;43.406;24.454;2023-04-25T12:07:36;1.93;;;1.43;;
8889;SDS011;4481;43.406;24.454;2023-04-25T12:10:06;2.07;;;1.43;;
8889;SDS011;4481;43.406;24.454;2023-04-25T12:12:33;2.00;;;1.80;;
8889;SDS011;4481;43.406;24.454;2023-04-25T12:15:07;1.63;;;1.50;;
8889;SDS011;4481;43.406;24.454;2023-04-25T12:17:35;1.70;;;1.47;;
8889;SDS011;4481;43.406;24.454;2023-04-25T12:20:05;1.97;;;1.53;;
8889;SDS011;4481;43.406;24.454;2023-04-25T12:22:33;1.80;;;1.60;;
8889;SDS011;4481;43.406;24.454;2023-04-25T12:25:00;1.30;;;1.20;;
8889;SDS011;4481;43.406;24.454;2023-04-25T12:27:30;2.50;;;1.50;;
8889;SDS011;4481;43.406;24.454;2023-04-25T12:29:57;10.00;;;2.30;;
8889;SDS011;4481;43.406;24.454;2023-04-25T12:32:23;3.43;;;1.90;;
8889;SDS011;4481;43.406;24.454;2023-04-25T12:34:50;3.33;;;2.20;;
8889;SDS011;4481;43.406;24.454;2023-04-25T12:37:16;6.33;;;2.50;;
8889;SDS011;4481;43.406;24.454;2023-04-25T12:39:42;9.03;;;2.63;;
8889;SDS011;4481;43.406;24.454;2023-04-25T12:42:09;6.40;;;2.53;;
8889;SDS011;4481;43.406;24.454;2023-04-25T12:44:37;9.47;;;2.00;;
8889;SDS011;4481;43.406;24.454;2023-04-25T12:47:03;3.13;;;2.10;;
8889;SDS011;4481;43.406;24.454;2023-04-25T12:49:30;2.80;;;2.40;;
8889;SDS011;4481;43.406;24.454;2023-04-25T12:51:56;2.83;;;2.03;;
8889;SDS011;4481;43.406;24.454;2023-04-25T12:54:22;2.33;;;2.13;;
8889;SDS011;4481;43.406;24.454;2023-04-25T12:56:49;5.20;;;2.07;;
8889;SDS011;4481;43.406;24.454;2023-04-25T12:59:18;2.53;;;2.30;;
8889;SDS011;4481;43.406;24.454;2023-04-25T13:01:45;3.53;;;2.30;;
8889;SDS011;4481;43.406;24.454;2023-04-25T13:04:11;7.10;;;2.50;;
8889;SDS011;4481;43.406;24.454;2023-04-25T13:06:37;2.87;;;2.50;;
8889;SDS011;4481;43.406;24.454;2023-04-25T13:09:03;6.17;;;2.53;;
8889;SDS011;4481;43.406;24.454;2023-04-25T13:11:30;3.07;;;2.60;;
8889;SDS011;4481;43.406;24.454;2023-04-25T13:13:56;3.37;;;2.73;;
8889;SDS011;4481;43.406;24.454;2023-04-25T13:16:23;4.07;;;2.13;;
8889;SDS011;4481;43.406;24.454;2023-04-25T13:18:49;5.90;;;2.87;;
8889;SDS011;4481;43.406;24.454;2023-04-25T13:21:15;3.60;;;2.73;;
8889;SDS011;4481;43.406;24.454;2023-04-25T13:23:41;3.33;;;2.60;;
8889;SDS011;4481;43.406;24.454;2023-04-25T13:26:09;2.77;;;2.57;;
8889;SDS011;4481;43.406;24.454;2023-04-25T13:28:35;4.03;;;2.50;;
8889;SDS011;4481;43.406;24.454;2023-04-25T13:31:01;4.30;;;2.50;;
8889;SDS011;4481;43.406;24.454;2023-04-25T13:33:29;3.33;;;2.80;;
8889;SDS011;4481;43.406;24.454;2023-04-25T13:35:55;3.60;;;2.80;;
8889;SDS011;4481;43.406;24.454;2023-04-25T13:38:22;7.03;;;2.77;;
8889;SDS011;4481;43.406;24.454;2023-04-25T13:40:50;3.37;;;2.63;;
8889;SDS011;4481;43.406;24.454;2023-04-25T13:43:18;3.70;;;3.30;;
8889;SDS011;4481;43.406;24.454;2023-04-25T13:45:44;5.13;;;3.03;;
8889;SDS011;4481;43.406;24.454;2023-04-25T13:48:10;2.80;;;2.50;;
8889;SDS011;4481;43.406;24.454;2023-04-25T13:50:37;3.80;;;2.10;;
8889;SDS011;4481;43.406;24.454;2023-04-25T13:53:03;6.60;;;2.00;;
8889;SDS011;4481;43.406;24.454;2023-04-25T13:55:29;3.60;;;2.00;;
8889;SDS011;4481;43.406;24.454;2023-04-25T13:57:56;2.33;;;1.87;;
8889;SDS011;4481;43.406;24.454;2023-04-25T14:00:22;2.40;;;2.00;;
8889;SDS011;4481;43.406;24.454;2023-04-25T14:02:48;3.23;;;2.53;;
8889;SDS011;4481;43.406;24.454;2023-04-25T14:05:15;4.07;;;3.20;;
8889;SDS011;4481;43.406;24.454;2023-04-25T14:07:42;6.23;;;2.80;;
8889;SDS011;4481;43.406;24.454;2023-04-25T14:10:08;3.13;;;2.83;;
8889;SDS011;4481;43.406;24.454;2023-04-25T14:12:35;3.83;;;2.57;;
8889;SDS011;4481;43.406;24.454;2023-04-25T14:15:01;2.87;;;2.57;;
8889;SDS011;4481;43.406;24.454;2023-04-25T14:17:27;4.13;;;2.50;;
8889;SDS011;4481;43.406;24.454;2023-04-25T14:19:53;2.77;;;2.57;;
8889;SDS011;4481;43.406;24.454;2023-04-25T14:22:20;2.07;;;1.87;;
8889;SDS011;4481;43.406;24.454;2023-04-25T14:24:46;4.73;;;2.27;;
8889;SDS011;4481;43.406;24.454;2023-04-25T14:27:13;2.60;;;2.30;;
8889;SDS011;4481;43.406;24.454;2023-04-25T14:29:39;2.57;;;1.90;;
8889;SDS011;4481;43.406;24.454;2023-04-25T14:32:05;4.93;;;2.03;;
8889;SDS011;4481;43.406;24.454;2023-04-25T14:34:31;2.57;;;2.13;;
8889;SDS011;4481;43.406;24.454;2023-04-25T14:36:58;2.10;;;1.90;;
8889;SDS011;4481;43.406;24.454;2023-04-25T14:39:24;1.93;;;1.80;;
8889;SDS011;4481;43.406;24.454;2023-04-25T14:41:51;1.73;;;1.63;;
8889;SDS011;4481;43.406;24.454;2023-04-25T14:44:17;1.90;;;1.23;;
8889;SDS011;4481;43.406;24.454;2023-04-25T14:46:43;1.70;;;1.60;;
8889;SDS011;4481;43.406;24.454;2023-04-25T14:49:10;1.50;;;1.40;;
8889;SDS011;4481;43.406;24.454;2023-04-25T14:51:36;2.03;;;1.30;;
8889;SDS011;4481;43.406;24.454;2023-04-25T14:54:02;1.30;;;1.07;;
8889;SDS011;4481;43.406;24.454;2023-04-25T14:56:28;1.30;;;1.20;;
8889;SDS011;4481;43.406;24.454;2023-04-25T14:58:56;1.90;;;1.10;;
8889;SDS011;4481;43.406;24.454;2023-04-25T15:01:22;1.83;;;1.60;;
8889;SDS011;4481;43.406;24.454;2023-04-25T15:03:48;2.20;;;2.00;;